createdAt,value
2022-10-21T00:00:54.529Z,19.20
2022-10-21T00:03:22.138Z,19.20
2022-10-21T00:05:49.579Z,19.20
2022-10-21T00:08:17.476Z,19.20
2022-10-21T00:10:44.556Z,19.20
2022-10-21T00:13:11.981Z,19.20
2022-10-21T00:15:38.673Z,19.20
2022-10-21T00:18:05.439Z,19.10
2022-10-21T00:20:34.764Z,19.10
2022-10-21T00:23:04.123Z,19.10
2022-10-21T00:25:30.938Z,19.10
2022-10-21T00:27:58.016Z,19.10
2022-10-21T00:30:24.938Z,19.10
2022-10-21T00:32:51.611Z,19.10
2022-10-21T00:35:18.275Z,19.10
2022-10-21T00:37:44.974Z,19.00
2022-10-21T00:40:11.887Z,19.00
2022-10-21T00:42:44.034Z,19.00
2022-10-21T00:45:20.404Z,19.00
2022-10-21T00:47:53.957Z,19.00
2022-10-21T00:50:28.888Z,19.00
2022-10-21T00:52:57.655Z,19.00
2022-10-21T00:55:27.370Z,19.00
2022-10-21T00:57:54.615Z,19.00
2022-10-21T01:00:21.398Z,19.00
2022-10-21T01:02:48.117Z,19.00
2022-10-21T01:05:16.756Z,19.00
2022-10-21T01:07:46.357Z,19.00
2022-10-21T01:10:13.398Z,18.90
2022-10-21T01:12:57.993Z,19.00
2022-10-21T01:15:52.381Z,18.90
2022-10-21T01:18:38.912Z,18.90
2022-10-21T01:21:15.989Z,18.90
2022-10-21T01:24:08.702Z,18.90
2022-10-21T01:27:12.503Z,18.90
2022-10-21T01:29:45.157Z,18.90
2022-10-21T01:32:36.422Z,18.90
2022-10-21T01:35:16.083Z,18.90
2022-10-21T01:38:07.709Z,18.90
2022-10-21T01:40:43.459Z,18.90
2022-10-21T01:43:26.216Z,18.90
2022-10-21T01:45:57.762Z,18.80
2022-10-21T01:48:30.664Z,18.80
2022-10-21T01:51:01.946Z,18.80
2022-10-21T01:53:40.665Z,18.90
2022-10-21T01:56:09.850Z,18.80
2022-10-21T01:58:39.221Z,18.80
2022-10-21T02:01:08.480Z,18.90
2022-10-21T02:03:39.788Z,18.90
2022-10-21T02:06:06.833Z,18.90
2022-10-21T02:08:34.160Z,18.80
2022-10-21T02:11:06.512Z,18.80
2022-10-21T02:13:40.281Z,18.80
2022-10-21T02:16:10.039Z,18.80
2022-10-21T02:18:36.791Z,18.80
2022-10-21T02:21:07.519Z,18.80
2022-10-21T02:23:55.530Z,18.80
2022-10-21T02:26:24.175Z,18.80
2022-10-21T02:28:52.284Z,18.80
2022-10-21T02:31:22.032Z,18.80
2022-10-21T02:34:19.467Z,18.80
2022-10-21T02:36:46.119Z,18.80
2022-10-21T02:39:24.948Z,18.70
2022-10-21T02:41:54.607Z,18.80
2022-10-21T02:44:22.433Z,18.80
2022-10-21T02:46:49.215Z,18.80
2022-10-21T02:49:16.222Z,18.80
2022-10-21T02:51:43.273Z,18.80
2022-10-21T02:54:10.009Z,18.80
2022-10-21T02:56:36.877Z,18.80
2022-10-21T02:59:03.555Z,18.80
2022-10-21T03:01:30.271Z,18.80
2022-10-21T03:03:57.036Z,18.80
2022-10-21T03:06:23.879Z,18.70
2022-10-21T03:08:50.597Z,18.60
2022-10-21T03:11:17.537Z,18.70
2022-10-21T03:13:44.180Z,18.70
2022-10-21T03:16:10.986Z,18.60
2022-10-21T03:18:37.783Z,18.60
2022-10-21T03:21:04.685Z,18.60
2022-10-21T03:23:31.425Z,18.60
2022-10-21T03:25:58.164Z,18.60
2022-10-21T03:28:24.891Z,18.60
2022-10-21T03:30:51.636Z,18.60
2022-10-21T03:33:18.576Z,18.50
2022-10-21T03:35:45.347Z,18.50
2022-10-21T03:38:12.039Z,18.50
2022-10-21T03:40:38.891Z,18.50
2022-10-21T03:43:05.737Z,18.50
2022-10-21T03:45:32.493Z,18.50
2022-10-21T03:47:59.300Z,18.40
2022-10-21T03:50:26.760Z,18.40
2022-10-21T03:52:54.481Z,18.40
2022-10-21T03:55:24.168Z,18.40
2022-10-21T03:57:51.573Z,18.40
2022-10-21T04:00:18.470Z,18.40
2022-10-21T04:02:45.294Z,18.40
2022-10-21T04:05:13.610Z,18.40
2022-10-21T04:07:40.335Z,18.40
2022-10-21T04:10:08.464Z,18.40
2022-10-21T04:12:35.515Z,18.40
2022-10-21T04:15:02.355Z,18.40
2022-10-21T04:17:29.272Z,18.40
2022-10-21T04:19:55.954Z,18.40
2022-10-21T04:22:22.645Z,18.40
2022-10-21T04:24:49.637Z,18.40
2022-10-21T04:27:16.389Z,18.30
2022-10-21T04:29:43.092Z,18.40
2022-10-21T04:32:09.908Z,18.30
2022-10-21T04:34:36.605Z,18.30
2022-10-21T04:37:05.198Z,18.30
2022-10-21T04:39:32.962Z,18.30
2022-10-21T04:41:59.623Z,18.40
2022-10-21T04:44:26.480Z,18.40
2022-10-21T04:46:53.252Z,18.40
2022-10-21T04:49:20.225Z,18.40
2022-10-21T04:51:46.911Z,18.40
2022-10-21T04:54:13.716Z,18.40
2022-10-21T04:56:41.549Z,18.40
2022-10-21T04:59:09.293Z,18.40
2022-10-21T05:01:36.049Z,18.30
2022-10-21T05:04:02.741Z,18.40
2022-10-21T05:06:29.597Z,18.30
2022-10-21T05:08:56.592Z,18.30
2022-10-21T05:11:23.379Z,18.40
2022-10-21T05:13:50.051Z,18.40
2022-10-21T05:16:17.023Z,18.30
2022-10-21T05:18:43.915Z,18.20
2022-10-21T05:21:10.606Z,18.30
2022-10-21T05:23:37.317Z,18.30
2022-10-21T05:26:04.148Z,18.30
2022-10-21T05:28:30.850Z,18.30
2022-10-21T05:30:57.748Z,18.30
2022-10-21T05:33:24.450Z,18.30
2022-10-21T05:36:01.009Z,18.40
2022-10-21T05:38:29.064Z,18.40
2022-10-21T05:40:55.902Z,18.40
2022-10-21T05:43:23.147Z,18.30
2022-10-21T05:45:49.844Z,18.20
2022-10-21T05:48:18.328Z,18.30
2022-10-21T05:50:46.018Z,18.30
2022-10-21T05:53:13.817Z,18.30
2022-10-21T05:55:40.598Z,18.30
2022-10-21T05:58:07.967Z,18.30
2022-10-21T06:00:35.101Z,18.30
2022-10-21T06:03:02.032Z,18.30
2022-10-21T06:05:28.895Z,18.30
2022-10-21T06:07:55.598Z,18.30
2022-10-21T06:10:25.509Z,18.30
2022-10-21T06:12:55.983Z,18.30
2022-10-21T06:15:22.639Z,18.30
2022-10-21T06:17:49.345Z,18.30
2022-10-21T06:20:16.192Z,18.30
2022-10-21T06:22:42.900Z,18.30
2022-10-21T06:25:09.632Z,18.40
2022-10-21T06:27:36.720Z,18.40
2022-10-21T06:30:04.444Z,18.30
2022-10-21T06:32:31.462Z,18.30
2022-10-21T06:34:58.481Z,18.30
2022-10-21T06:37:25.179Z,18.30
2022-10-21T06:39:51.845Z,18.30
2022-10-21T06:42:18.553Z,18.30
2022-10-21T06:44:45.214Z,18.30
2022-10-21T06:47:12.036Z,18.40
2022-10-21T06:49:38.800Z,18.40
2022-10-21T06:52:05.455Z,18.30
2022-10-21T06:54:32.403Z,18.40
2022-10-21T06:56:59.103Z,18.40
2022-10-21T06:59:25.884Z,18.40
2022-10-21T07:02:00.092Z,18.50
2022-10-21T07:04:27.709Z,18.40
2022-10-21T07:06:54.676Z,18.40
2022-10-21T07:09:21.449Z,18.40
2022-10-21T07:11:48.221Z,18.40
2022-10-21T07:14:14.888Z,18.40
2022-10-21T07:16:41.572Z,18.40
2022-10-21T07:19:10.597Z,18.50
2022-10-21T07:21:37.253Z,18.50
2022-10-21T07:24:04.172Z,18.50
2022-10-21T07:26:32.787Z,18.40
2022-10-21T07:29:00.795Z,18.40
2022-10-21T07:31:30.711Z,18.50
2022-10-21T07:33:57.468Z,18.50
2022-10-21T07:36:27.211Z,18.50
2022-10-21T07:38:55.877Z,18.50
2022-10-21T07:41:27.995Z,18.50
2022-10-21T07:43:55.206Z,18.60
2022-10-21T07:46:22.780Z,18.60
2022-10-21T07:48:50.788Z,18.60
2022-10-21T07:51:20.326Z,18.60
2022-10-21T07:53:48.976Z,18.70
2022-10-21T07:56:21.829Z,18.70
2022-10-21T07:58:48.791Z,18.70
2022-10-21T08:01:17.296Z,18.70
2022-10-21T08:03:44.243Z,18.70
2022-10-21T08:06:13.584Z,18.70
2022-10-21T08:08:40.882Z,18.80
2022-10-21T08:11:09.037Z,18.80
2022-10-21T08:13:36.174Z,18.80
2022-10-21T08:16:06.602Z,18.80
2022-10-21T08:18:33.748Z,18.80
2022-10-21T08:21:03.741Z,18.80
2022-10-21T08:23:30.889Z,18.90
2022-10-21T08:26:00.653Z,18.90
2022-10-21T08:28:29.502Z,18.90
2022-10-21T08:31:11.675Z,19.00
2022-10-21T08:33:38.500Z,19.00
2022-10-21T08:36:09.542Z,19.00
2022-10-21T08:38:36.644Z,18.90
2022-10-21T08:41:20.567Z,18.90
2022-10-21T08:43:47.460Z,18.90
2022-10-21T08:46:19.671Z,18.90
2022-10-21T08:49:02.662Z,19.00
2022-10-21T08:51:35.033Z,19.00
2022-10-21T08:54:06.681Z,19.00
2022-10-21T08:56:33.358Z,19.10
2022-10-21T08:59:00.022Z,19.10
2022-10-21T09:01:32.807Z,19.10
2022-10-21T09:03:59.419Z,19.10
2022-10-21T09:06:58.499Z,19.20
2022-10-21T09:09:55.590Z,19.20
2022-10-21T09:12:38.010Z,19.30
2022-10-21T09:15:39.881Z,19.30
2022-10-21T09:18:15.464Z,19.40
2022-10-21T09:20:52.103Z,19.40
2022-10-21T09:23:49.690Z,19.40
2022-10-21T09:26:30.206Z,19.40
2022-10-21T09:28:57.660Z,19.50
2022-10-21T09:31:24.568Z,19.50
2022-10-21T09:33:58.488Z,19.40
2022-10-21T09:36:29.554Z,19.40
2022-10-21T09:39:09.469Z,19.40
2022-10-21T09:41:42.735Z,19.60
2022-10-21T09:44:22.687Z,19.50
2022-10-21T09:46:51.515Z,19.50
2022-10-21T09:49:54.744Z,19.50
2022-10-21T09:52:17.115Z,19.50
2022-10-21T09:54:45.110Z,19.50
2022-10-21T09:57:44.564Z,19.60
2022-10-21T10:00:13.785Z,19.70
2022-10-21T10:02:44.998Z,19.70
2022-10-21T10:05:35.332Z,19.70
2022-10-21T10:08:21.495Z,19.80
2022-10-21T10:10:48.392Z,19.80
2022-10-21T10:13:19.934Z,19.80
2022-10-21T10:15:46.624Z,19.80
2022-10-21T10:18:23.665Z,19.90
2022-10-21T10:21:10.349Z,19.90
2022-10-21T10:23:45.607Z,19.90
2022-10-21T10:26:20.292Z,19.80
2022-10-21T10:28:52.588Z,19.80
2022-10-21T10:31:28.713Z,19.70
2022-10-21T10:34:01.759Z,19.70
2022-10-21T10:36:36.299Z,19.70
2022-10-21T10:39:19.683Z,19.70
2022-10-21T10:41:49.934Z,19.50
2022-10-21T10:44:38.024Z,19.50
2022-10-21T10:47:06.848Z,19.50
2022-10-21T10:49:40.781Z,19.50
2022-10-21T10:52:10.467Z,19.50
2022-10-21T10:54:40.443Z,19.50
2022-10-21T10:57:34.218Z,19.70
2022-10-21T11:00:20.578Z,19.70
2022-10-21T11:03:02.419Z,19.80
2022-10-21T11:05:37.041Z,19.70
2022-10-21T11:08:23.912Z,19.70
2022-10-21T11:10:53.301Z,19.80
2022-10-21T11:13:22.865Z,19.80
2022-10-21T11:16:19.763Z,19.80
2022-10-21T11:19:11.560Z,19.80
2022-10-21T11:21:54.548Z,19.70
2022-10-21T11:24:59.636Z,19.80
2022-10-21T11:28:07.815Z,19.80
2022-10-21T11:30:52.180Z,19.80
2022-10-21T11:33:54.298Z,19.80
2022-10-21T11:36:45.993Z,19.90
2022-10-21T11:39:34.956Z,19.80
2022-10-21T11:42:27.860Z,19.80
2022-10-21T11:45:01.607Z,19.90
2022-10-21T11:47:36.205Z,19.90
2022-10-21T11:50:24.250Z,19.90
2022-10-21T11:53:28.376Z,19.90
2022-10-21T11:56:22.808Z,20.00
2022-10-21T12:02:25.554Z,20.00
2022-10-21T12:04:52.416Z,20.10
2022-10-21T12:07:54.257Z,20.20
2022-10-21T12:10:48.640Z,20.20
2022-10-21T12:13:37.876Z,20.20
2022-10-21T12:16:14.682Z,20.20
2022-10-21T12:18:50.476Z,20.20
2022-10-21T12:21:22.407Z,20.20
2022-10-21T12:23:59.480Z,20.10
2022-10-21T12:29:24.865Z,20.20
2022-10-21T12:32:25.661Z,20.20
2022-10-21T12:34:54.114Z,20.20
2022-10-21T12:37:48.801Z,20.20
2022-10-21T12:40:37.724Z,20.20
2022-10-21T12:43:27.138Z,20.20
2022-10-21T12:46:07.373Z,20.30
2022-10-21T12:48:43.824Z,20.30
2022-10-21T12:51:32.890Z,20.30
2022-10-21T12:54:02.402Z,20.30
2022-10-21T12:56:47.857Z,20.20
2022-10-21T12:59:34.073Z,20.30
2022-10-21T13:02:07.903Z,20.30
2022-10-21T13:04:34.569Z,20.20
2022-10-21T13:07:25.658Z,20.10
2022-10-21T13:09:52.259Z,20.10
2022-10-21T13:12:22.937Z,20.00
2022-10-21T13:14:50.551Z,20.10
2022-10-21T13:17:23.248Z,20.10
2022-10-21T13:20:10.216Z,20.10
2022-10-21T13:22:41.862Z,20.00
2022-10-21T13:25:31.284Z,20.10
2022-10-21T13:28:05.839Z,20.00
2022-10-21T13:30:56.483Z,20.00
2022-10-21T13:33:30.852Z,20.00
2022-10-21T13:36:08.521Z,19.90
2022-10-21T13:38:37.449Z,19.80
2022-10-21T13:41:18.506Z,19.90
2022-10-21T13:43:52.900Z,19.80
2022-10-21T13:46:31.316Z,19.80
2022-10-21T13:49:01.575Z,19.80
2022-10-21T13:51:44.858Z,19.80
2022-10-21T13:54:14.152Z,19.80
2022-10-21T13:56:42.328Z,19.70
2022-10-21T13:59:29.838Z,19.70
2022-10-21T14:01:57.847Z,19.70
2022-10-21T14:04:32.830Z,19.60
2022-10-21T14:07:06.293Z,19.60
2022-10-21T14:09:42.274Z,19.70
2022-10-21T14:12:35.649Z,19.60
2022-10-21T14:15:06.981Z,19.60
2022-10-21T14:17:36.772Z,19.50
2022-10-21T14:20:13.164Z,19.60
2022-10-21T14:22:40.762Z,19.60
2022-10-21T14:25:15.700Z,19.60
2022-10-21T14:27:46.896Z,19.50
2022-10-21T14:30:29.936Z,19.50
2022-10-21T14:32:59.319Z,19.50
2022-10-21T14:35:29.319Z,19.50
2022-10-21T14:37:59.532Z,19.40
2022-10-21T14:40:32.700Z,19.40
2022-10-21T14:43:09.950Z,19.40
2022-10-21T14:45:44.546Z,19.40
2022-10-21T14:48:14.518Z,19.30
2022-10-21T14:50:42.515Z,19.40
2022-10-21T14:53:17.228Z,19.40
2022-10-21T14:55:45.774Z,19.40
2022-10-21T14:58:22.887Z,19.40
2022-10-21T15:01:02.058Z,19.30
2022-10-21T15:03:50.183Z,19.30
2022-10-21T15:06:28.536Z,19.30
2022-10-21T15:09:00.739Z,19.30
2022-10-21T15:11:36.245Z,19.30
2022-10-21T15:14:05.976Z,19.30
2022-10-21T15:19:12.830Z,19.40
2022-10-21T15:21:52.666Z,19.80
2022-10-21T15:24:34.139Z,19.20
2022-10-21T15:27:01.927Z,19.30
2022-10-21T15:29:34.853Z,19.20
2022-10-21T15:32:02.728Z,19.20
2022-10-21T15:34:29.519Z,19.50
2022-10-21T15:36:56.288Z,19.20
2022-10-21T15:39:23.490Z,19.20
2022-10-21T15:41:54.918Z,19.20
2022-10-21T15:44:28.128Z,19.20
2022-10-21T15:47:00.638Z,19.20
2022-10-21T15:49:32.301Z,19.20
2022-10-21T15:51:59.088Z,19.10
2022-10-21T15:54:25.744Z,19.10
2022-10-21T15:56:54.632Z,19.10
2022-10-21T15:59:27.521Z,19.10
2022-10-21T16:01:55.352Z,19.10
2022-10-21T16:04:23.115Z,19.10
2022-10-21T16:06:51.189Z,19.00
2022-10-21T16:09:21.156Z,19.10
2022-10-21T16:11:58.835Z,19.00
2022-10-21T16:14:29.301Z,19.00
2022-10-21T16:16:58.213Z,18.90
2022-10-21T16:19:24.904Z,18.90
2022-10-21T16:21:51.697Z,18.90
2022-10-21T16:24:18.658Z,18.90
2022-10-21T16:26:48.199Z,18.90
2022-10-21T16:29:23.253Z,19.00
2022-10-21T16:31:50.720Z,18.90
2022-10-21T16:34:17.505Z,19.00
2022-10-21T16:36:44.305Z,18.90
2022-10-21T16:39:15.425Z,18.90
2022-10-21T16:41:42.128Z,18.90
2022-10-21T16:44:08.917Z,18.90
2022-10-21T16:46:40.582Z,18.90
2022-10-21T16:49:13.131Z,18.90
2022-10-21T16:51:42.722Z,18.90
2022-10-21T16:54:10.757Z,18.90
2022-10-21T16:56:37.528Z,18.80
2022-10-21T16:59:04.820Z,18.80
2022-10-21T17:01:31.648Z,18.80
2022-10-21T17:03:58.560Z,18.70
2022-10-21T17:06:26.241Z,18.70
2022-10-21T17:08:54.749Z,18.70
2022-10-21T17:11:42.704Z,18.70
2022-10-21T17:14:15.568Z,18.70
2022-10-21T17:16:42.364Z,18.70
2022-10-21T17:19:09.041Z,18.70
2022-10-21T17:21:35.776Z,18.70
2022-10-21T17:24:03.762Z,18.70
2022-10-21T17:26:31.203Z,18.70
2022-10-21T17:28:58.312Z,18.70
2022-10-21T17:31:27.742Z,18.70
2022-10-21T17:33:57.312Z,18.70
2022-10-21T17:36:24.335Z,18.70
2022-10-21T17:38:51.229Z,18.70
2022-10-21T17:41:20.353Z,18.70
2022-10-21T17:43:48.032Z,18.70
2022-10-21T17:46:25.445Z,18.70
2022-10-21T17:48:53.354Z,18.70
2022-10-21T17:51:21.345Z,18.70
2022-10-21T17:53:52.617Z,18.70
2022-10-21T17:56:19.488Z,18.80
2022-10-21T17:58:50.243Z,18.80
2022-10-21T18:01:17.795Z,18.70
2022-10-21T18:03:45.334Z,18.80
2022-10-21T18:06:13.503Z,18.80
2022-10-21T18:08:40.421Z,18.80
2022-10-21T18:11:09.616Z,18.80
2022-10-21T18:13:37.251Z,18.70
2022-10-21T18:16:10.100Z,18.80
2022-10-21T18:18:38.639Z,18.80
2022-10-21T18:21:08.066Z,18.80
2022-10-21T18:23:39.650Z,18.80
2022-10-21T18:26:11.076Z,18.80
2022-10-21T18:28:38.064Z,18.80
2022-10-21T18:31:05.568Z,18.80
2022-10-21T18:33:32.775Z,18.70
2022-10-21T18:36:14.115Z,18.70
2022-10-21T18:38:40.941Z,18.80
2022-10-21T18:41:19.524Z,18.80
2022-10-21T18:43:49.692Z,18.80
2022-10-21T18:46:16.580Z,18.80
2022-10-21T18:48:43.646Z,18.80
2022-10-21T18:51:12.250Z,18.70
2022-10-21T18:53:39.679Z,18.80
2022-10-21T18:56:08.335Z,18.80
2022-10-21T18:58:36.820Z,18.80
2022-10-21T19:01:04.941Z,18.80
2022-10-21T19:03:32.577Z,18.80
2022-10-21T19:06:14.955Z,18.80
2022-10-21T19:08:41.682Z,18.70
2022-10-21T19:11:08.372Z,18.70
2022-10-21T19:13:35.133Z,18.70
2022-10-21T19:16:01.831Z,18.70
2022-10-21T19:18:28.535Z,18.70
2022-10-21T19:20:56.140Z,18.60
2022-10-21T19:23:22.848Z,18.70
2022-10-21T19:25:49.526Z,18.60
2022-10-21T19:28:16.233Z,18.60
2022-10-21T19:30:45.292Z,18.70
2022-10-21T19:33:11.985Z,18.70
2022-10-21T19:35:38.932Z,18.70
2022-10-21T19:38:11.340Z,18.70
2022-10-21T19:40:42.411Z,18.70
2022-10-21T19:43:09.462Z,18.70
2022-10-21T19:45:37.263Z,18.70
2022-10-21T19:48:04.334Z,18.60
2022-10-21T19:50:31.037Z,18.70
2022-10-21T19:52:57.750Z,18.70
2022-10-21T19:55:24.605Z,18.70
2022-10-21T19:57:51.304Z,18.70
2022-10-21T20:00:18.089Z,18.70
2022-10-21T20:02:44.783Z,18.70
2022-10-21T20:05:11.479Z,18.70
2022-10-21T20:07:39.022Z,18.60
2022-10-21T20:10:06.559Z,18.60
2022-10-21T20:12:33.212Z,18.70
2022-10-21T20:14:59.915Z,18.60
2022-10-21T20:17:26.698Z,18.70
2022-10-21T20:19:53.414Z,18.70
2022-10-21T20:22:20.105Z,18.70
2022-10-21T20:24:46.820Z,18.70
2022-10-21T20:27:13.613Z,18.70
2022-10-21T20:29:40.319Z,18.70
2022-10-21T20:32:07.125Z,18.70
2022-10-21T20:34:34.104Z,18.70
2022-10-21T20:37:04.260Z,18.70
2022-10-21T20:39:31.047Z,18.70
2022-10-21T20:41:57.709Z,18.70
2022-10-21T20:44:24.389Z,18.70
2022-10-21T20:46:51.166Z,18.70
2022-10-21T20:49:17.892Z,18.70
2022-10-21T20:51:44.639Z,18.70
2022-10-21T20:54:22.699Z,18.70
2022-10-21T20:56:49.688Z,18.70
2022-10-21T20:59:16.856Z,18.70
2022-10-21T21:01:46.662Z,18.70
2022-10-21T21:04:16.071Z,18.70
2022-10-21T21:06:48.330Z,18.70
2022-10-21T21:12:04.121Z,18.70
2022-10-21T21:14:31.578Z,18.70
2022-10-21T21:16:58.268Z,18.70
2022-10-21T21:19:25.731Z,18.70
2022-10-21T21:21:52.604Z,18.70
2022-10-21T21:24:19.590Z,18.70
2022-10-21T21:26:46.925Z,18.70
2022-10-21T21:29:14.042Z,18.70
2022-10-21T21:31:41.819Z,18.70
2022-10-21T21:34:09.420Z,18.70
2022-10-21T21:36:36.837Z,18.70
2022-10-21T21:39:05.309Z,18.70
2022-10-21T21:41:32.305Z,18.70
2022-10-21T21:43:59.054Z,18.70
2022-10-21T21:46:26.141Z,18.60
2022-10-21T21:49:04.642Z,18.70
2022-10-21T21:51:33.952Z,18.70
2022-10-21T21:54:00.738Z,18.70
2022-10-21T21:56:28.196Z,18.70
2022-10-21T21:58:56.104Z,18.60
2022-10-21T22:01:25.351Z,18.60
2022-10-21T22:03:52.909Z,18.60
2022-10-21T22:06:21.763Z,18.60
2022-10-21T22:08:49.428Z,18.60
2022-10-21T22:11:19.311Z,18.70
2022-10-21T22:13:46.135Z,18.60
2022-10-21T22:16:14.704Z,18.70
2022-10-21T22:18:41.912Z,18.70
2022-10-21T22:21:11.710Z,18.70
2022-10-21T22:23:39.240Z,18.70
2022-10-21T22:26:06.809Z,18.70
2022-10-21T22:28:34.450Z,18.70
2022-10-21T22:31:04.297Z,18.70
2022-10-21T22:33:31.729Z,18.70
2022-10-21T22:35:58.723Z,18.70
2022-10-21T22:38:25.972Z,18.70
2022-10-21T22:40:54.248Z,18.70
2022-10-21T22:43:22.551Z,18.60
2022-10-21T22:45:49.327Z,18.70
2022-10-21T22:48:16.501Z,18.60
2022-10-21T22:50:43.448Z,18.70
2022-10-21T22:53:10.870Z,18.70
2022-10-21T22:55:39.237Z,18.70
2022-10-21T22:58:06.547Z,18.70
2022-10-21T23:00:33.545Z,18.70
2022-10-21T23:03:00.251Z,18.70
2022-10-21T23:05:26.905Z,18.80
2022-10-21T23:07:53.538Z,18.80
2022-10-21T23:10:20.300Z,18.80
2022-10-21T23:12:46.943Z,18.80
2022-10-21T23:15:13.922Z,18.80
2022-10-21T23:17:40.637Z,18.80
2022-10-21T23:20:07.861Z,18.80
2022-10-21T23:22:34.586Z,18.80
2022-10-21T23:25:01.333Z,18.80
2022-10-21T23:27:28.105Z,18.80
2022-10-21T23:29:54.902Z,18.80
2022-10-21T23:32:21.717Z,18.80
2022-10-21T23:34:48.404Z,18.80
2022-10-21T23:37:15.226Z,18.80
2022-10-21T23:39:42.240Z,18.80
2022-10-21T23:42:09.152Z,18.80
2022-10-21T23:44:35.871Z,18.80
2022-10-21T23:47:02.979Z,18.80
2022-10-21T23:49:29.617Z,18.80
2022-10-21T23:51:56.389Z,18.80
2022-10-21T23:54:23.182Z,18.80
2022-10-21T23:56:49.932Z,18.80
2022-10-21T23:59:16.737Z,18.80
